Time;durP1;ratioP1;P1;durP2;ratioP2;P2;SDS_P1;SDS_P2;PMS_P1;PMS_P2;Temp;Humidity;BMP_temperature;BMP_pressure;BME280_temperature;BME280_humidity;BME280_pressure;Samples;Min_cycle;Max_cycle;Signal;HPM_P1;HPM_P2
2022/06/29 00:02:05;;;;;;;12.15;1.63;;;44.20;27.20;;;;;;4911780;29;20046;-67
2022/06/29 00:04:32;;;;;;;4.13;1.35;;;44.10;27.20;;;;;;4914932;29;20141;-70
2022/06/29 00:06:58;;;;;;;12.27;2.13;;;44.10;27.20;;;;;;4916555;29;20047;-68
2022/06/29 00:09:25;;;;;;;10.45;1.85;;;44.20;29.70;;;;;;4930183;29;20446;-68
2022/06/29 00:11:51;;;;;;;13.95;2.42;;;44.20;27.30;;;;;;4915037;29;20187;-68
2022/06/29 00:14:17;;;;;;;12.82;2.20;;;44.10;27.90;;;;;;4898515;29;20037;-66
2022/06/29 00:16:44;;;;;;;16.80;2.45;;;44.00;32.20;;;;;;4913824;29;20405;-66
2022/06/29 00:19:10;;;;;;;7.53;2.40;;;43.90;29.30;;;;;;4914103;29;20052;-69
2022/06/29 00:21:36;;;;;;;14.75;2.45;;;43.70;28.90;;;;;;4914227;29;20057;-65
2022/06/29 00:24:03;;;;;;;15.20;2.72;;;43.50;32.10;;;;;;4914320;29;20101;-69
2022/06/29 00:26:29;;;;;;;13.65;2.63;;;43.40;30.60;;;;;;4922763;29;20051;-68
2022/06/29 00:28:56;;;;;;;15.40;2.42;;;43.10;30.30;;;;;;4898514;29;20062;-66
2022/06/29 00:31:22;;;;;;;7.57;1.90;;;42.90;31.40;;;;;;4914052;29;20087;-66
2022/06/29 00:33:48;;;;;;;11.50;2.63;;;42.80;31.80;;;;;;4913558;29;20110;-66
2022/06/29 00:36:15;;;;;;;6.13;1.77;;;42.70;30.60;;;;;;4914300;29;20086;-67
2022/06/29 00:38:41;;;;;;;6.03;1.88;;;42.60;30.90;;;;;;4897399;29;20049;-62
2022/06/29 00:41:07;;;;;;;7.22;2.25;;;42.60;29.90;;;;;;4929828;29;20512;-65
2022/06/29 00:43:41;;;;;;;13.63;1.90;;;42.50;30.20;;;;;;4920191;29;20064;-64
2022/06/29 00:46:08;;;;;;;5.82;1.80;;;42.40;30.10;;;;;;4913105;29;20140;-66
2022/06/29 00:48:36;;;;;;;6.40;1.70;;;42.30;29.80;;;;;;4913455;29;20074;-64
2022/06/29 00:51:03;;;;;;;5.53;1.75;;;42.30;30.70;;;;;;4912176;29;20095;-64
2022/06/29 00:53:38;;;;;;;10.75;1.85;;;42.20;29.70;;;;;;4915654;29;20391;-65
2022/06/29 00:56:09;;;;;;;5.97;1.45;;;42.10;29.80;;;;;;4914156;29;20060;-64
2022/06/29 00:58:36;;;;;;;7.63;1.73;;;42.20;30.70;;;;;;4898655;29;20112;-63
2022/06/29 01:01:06;;;;;;;12.43;2.03;;;42.10;29.80;;;;;;4914950;29;20752;-66
2022/06/29 01:03:33;;;;;;;12.57;2.08;;;42.00;29.80;;;;;;4915110;29;20132;-63
2022/06/29 01:06:00;;;;;;;7.28;1.50;;;42.00;29.90;;;;;;4915603;29;20061;-62
2022/06/29 01:08:27;;;;;;;11.52;1.85;;;42.00;29.90;;;;;;4914025;29;20079;-64
2022/06/29 01:10:54;;;;;;;9.18;1.75;;;41.90;29.90;;;;;;4914050;29;20047;-62
2022/06/29 01:13:20;;;;;;;6.05;1.20;;;41.90;30.00;;;;;;4913328;29;20082;-64
2022/06/29 01:15:47;;;;;;;10.85;1.40;;;41.80;30.00;;;;;;4915268;29;20083;-62
2022/06/29 01:18:13;;;;;;;8.70;1.25;;;41.70;30.00;;;;;;4914202;29;20056;-64
2022/06/29 01:20:39;;;;;;;6.03;1.30;;;41.70;30.10;;;;;;4913753;29;20052;-64
2022/06/29 01:23:06;;;;;;;10.60;1.30;;;41.70;30.10;;;;;;4911777;29;20055;-63
2022/06/29 01:25:32;;;;;;;12.05;1.42;;;41.70;30.90;;;;;;4915247;29;20154;-66
2022/06/29 01:27:58;;;;;;;11.35;1.65;;;41.60;30.10;;;;;;4912054;29;20081;-64
2022/06/29 01:30:25;;;;;;;10.15;1.40;;;41.50;30.40;;;;;;4896411;29;21077;-65
2022/06/29 01:32:51;;;;;;;9.68;2.05;;;41.40;30.10;;;;;;4897588;29;20535;-65
2022/06/29 01:35:22;;;;;;;8.57;1.80;;;41.50;30.20;;;;;;4912132;29;20095;-67
2022/06/29 01:37:49;;;;;;;8.95;2.20;;;41.40;30.00;;;;;;4913214;29;20397;-63
2022/06/29 01:40:15;;;;;;;8.65;2.10;;;41.40;30.00;;;;;;4896913;29;20061;-63
2022/06/29 01:42:42;;;;;;;6.38;2.20;;;41.30;29.60;;;;;;4927634;28;20456;-67
2022/06/29 01:45:09;;;;;;;6.03;2.08;;;41.30;29.90;;;;;;4914461;29;20052;-63
2022/06/29 01:47:35;;;;;;;10.45;2.53;;;41.20;29.80;;;;;;4911644;29;20059;-67
2022/06/29 01:50:02;;;;;;;7.75;2.00;;;41.10;30.30;;;;;;4914186;29;20058;-66
2022/06/29 01:52:28;;;;;;;21.30;2.53;;;41.10;29.80;;;;;;4912891;29;20051;-65
2022/06/29 01:54:54;;;;;;;13.20;2.85;;;41.10;30.00;;;;;;4896532;29;20057;-67
2022/06/29 01:57:21;;;;;;;8.80;2.53;;;41.10;30.20;;;;;;4912628;29;20409;-67
2022/06/29 01:59:47;;;;;;;19.95;2.78;;;40.90;30.00;;;;;;4913199;29;20169;-68
2022/06/29 02:02:13;;;;;;;13.50;2.65;;;40.90;30.00;;;;;;4914225;29;20120;-67
2022/06/29 02:04:40;;;;;;;18.88;3.17;;;40.80;30.10;;;;;;4912148;29;20111;-67
2022/06/29 02:07:06;;;;;;;9.20;2.75;;;40.80;30.60;;;;;;4912556;29;20532;-67
2022/06/29 02:09:32;;;;;;;13.32;3.10;;;40.80;30.20;;;;;;4913683;29;20100;-67
2022/06/29 02:11:59;;;;;;;16.85;3.50;;;40.70;30.10;;;;;;4912384;29;20162;-65
2022/06/29 02:14:25;;;;;;;19.10;3.63;;;40.70;30.20;;;;;;4913773;29;20395;-66
2022/06/29 02:16:52;;;;;;;14.15;2.88;;;40.60;30.20;;;;;;4896855;29;20060;-66
2022/06/29 02:19:18;;;;;;;18.85;2.97;;;40.50;30.00;;;;;;4911908;29;20073;-66
2022/06/29 02:21:44;;;;;;;12.25;1.75;;;40.50;30.40;;;;;;4912612;29;20066;-66
2022/06/29 02:24:13;;;;;;;19.67;2.15;;;40.40;30.40;;;;;;4910851;29;20492;-66
2022/06/29 02:26:40;;;;;;;13.65;2.90;;;40.40;30.60;;;;;;4910635;29;20050;-66
2022/06/29 02:29:06;;;;;;;16.50;2.58;;;40.30;31.60;;;;;;4912083;29;20157;-69
2022/06/29 02:37:02;;;;;;;14.02;2.55;;;40.10;31.60;;;;;;4914101;29;20608;-66
2022/06/29 02:39:29;;;;;;;14.73;3.30;;;40.00;32.00;;;;;;4911565;29;20063;-65
2022/06/29 02:41:55;;;;;;;17.33;3.30;;;40.00;32.00;;;;;;4912069;29;20069;-68
2022/06/29 02:44:21;;;;;;;11.70;2.88;;;39.90;32.10;;;;;;4925183;29;20074;-65
2022/06/29 02:46:48;;;;;;;17.60;3.35;;;39.80;32.10;;;;;;4910867;29;20064;-66
2022/06/29 02:49:14;;;;;;;15.18;2.83;;;39.80;32.70;;;;;;4926825;29;20439;-70
2022/06/29 02:51:40;;;;;;;16.70;3.65;;;39.70;33.10;;;;;;4912019;29;20054;-66
2022/06/29 02:54:07;;;;;;;16.58;2.95;;;39.70;32.90;;;;;;4910793;29;20061;-64
2022/06/29 02:56:33;;;;;;;27.50;3.08;;;39.70;32.70;;;;;;4926882;29;20051;-66
2022/06/29 02:59:00;;;;;;;23.33;2.97;;;39.60;33.00;;;;;;4911850;29;20665;-66
2022/06/29 03:01:26;;;;;;;15.80;3.13;;;39.50;33.80;;;;;;4912549;29;20057;-63
2022/06/29 03:03:52;;;;;;;21.40;3.10;;;39.40;32.80;;;;;;4912069;29;20057;-67
2022/06/29 03:06:19;;;;;;;15.98;3.05;;;39.30;32.80;;;;;;4912685;29;20054;-67
2022/06/29 03:08:45;;;;;;;19.95;2.85;;;39.30;33.70;;;;;;4912157;29;20787;-65
2022/06/29 03:11:12;;;;;;;13.60;2.53;;;39.20;32.70;;;;;;4912892;29;20087;-66
2022/06/29 03:13:38;;;;;;;12.07;2.17;;;39.20;32.80;;;;;;4912588;29;20060;-65
2022/06/29 03:16:05;;;;;;;17.27;2.33;;;39.20;33.50;;;;;;4912003;29;20082;-63
2022/06/29 03:18:31;;;;;;;13.65;1.90;;;39.10;32.50;;;;;;4910760;29;20418;-66
2022/06/29 03:20:58;;;;;;;19.35;2.38;;;39.10;32.90;;;;;;4912148;29;20053;-64
2022/06/29 03:23:24;;;;;;;15.57;2.15;;;39.10;33.00;;;;;;4911228;29;20066;-62
2022/06/29 03:25:50;;;;;;;10.80;2.17;;;39.00;32.70;;;;;;4913280;29;20111;-66
2022/06/29 03:28:17;;;;;;;12.48;2.10;;;39.00;32.80;;;;;;4911334;29;20064;-65
2022/06/29 03:30:43;;;;;;;21.75;2.30;;;39.00;32.90;;;;;;4911956;29;20090;-64
2022/06/29 03:33:10;;;;;;;8.18;2.40;;;38.90;33.10;;;;;;4913914;29;20056;-67
2022/06/29 03:35:37;;;;;;;19.30;2.20;;;38.90;33.40;;;;;;4911495;29;20098;-64
2022/06/29 03:38:03;;;;;;;18.95;2.92;;;38.90;33.30;;;;;;4913592;29;20069;-63
2022/06/29 03:40:30;;;;;;;19.35;2.35;;;38.80;33.20;;;;;;4915529;29;20083;-65
2022/06/29 03:43:04;;;;;;;18.40;3.00;;;38.80;33.50;;;;;;4919667;29;20056;-60
2022/06/29 03:45:31;;;;;;;15.43;2.03;;;38.80;33.50;;;;;;4922650;29;20059;-64
2022/06/29 03:47:58;;;;;;;11.32;2.97;;;38.70;33.50;;;;;;4919772;29;20063;-65
2022/06/29 03:50:24;;;;;;;22.90;2.70;;;38.70;33.70;;;;;;4915771;29;20075;-67
2022/06/29 03:52:50;;;;;;;15.65;2.28;;;38.60;33.90;;;;;;4913660;29;20090;-67
2022/06/29 03:55:17;;;;;;;15.52;2.00;;;38.60;34.10;;;;;;4912948;29;20589;-66
2022/06/29 03:57:44;;;;;;;13.50;2.17;;;38.50;34.40;;;;;;4929842;29;20069;-65
2022/06/29 04:00:11;;;;;;;18.70;3.15;;;38.50;34.60;;;;;;4914689;29;20400;-64
2022/06/29 04:02:37;;;;;;;25.08;3.30;;;38.50;34.40;;;;;;4915727;29;20057;-66
2022/06/29 04:05:04;;;;;;;19.48;3.10;;;38.50;34.40;;;;;;4939727;29;20144;-65
2022/06/29 04:07:32;;;;;;;20.08;4.10;;;38.40;34.90;;;;;;4915247;29;20073;-64
2022/06/29 04:10:01;;;;;;;26.30;4.88;;;38.40;34.90;;;;;;4913020;29;20531;-64
2022/06/29 04:12:33;;;;;;;21.52;2.92;;;38.30;34.50;;;;;;4916271;29;20157;-66
2022/06/29 04:14:59;;;;;;;20.00;2.85;;;38.30;30.20;;;;;;4928739;29;20149;-68
2022/06/29 04:17:25;;;;;;;16.00;2.60;;;38.20;28.50;;;;;;4915998;29;20053;-67
2022/06/29 04:19:52;;;;;;;15.13;3.08;;;38.20;26.80;;;;;;4914806;29;20515;-67
2022/06/29 04:22:20;;;;;;;25.77;2.92;;;38.30;25.70;;;;;;4917589;29;20072;-66
2022/06/29 04:24:47;;;;;;;13.25;2.65;;;38.20;25.50;;;;;;4917211;29;20056;-66
2022/06/29 04:27:14;;;;;;;17.98;3.33;;;38.10;25.80;;;;;;4916175;29;20122;-66
2022/06/29 04:29:40;;;;;;;19.05;2.90;;;38.10;26.30;;;;;;4920312;29;20078;-68
2022/06/29 04:32:07;;;;;;;11.55;2.38;;;38.10;25.70;;;;;;4915690;29;20441;-65
2022/06/29 04:34:33;;;;;;;16.73;2.20;;;37.90;25.40;;;;;;4914416;29;20059;-63
2022/06/29 04:37:00;;;;;;;16.30;2.63;;;37.90;24.30;;;;;;4914222;29;20160;-63
2022/06/29 04:39:26;;;;;;;11.90;2.88;;;37.80;24.40;;;;;;4916137;29;20509;-65
2022/06/29 04:41:53;;;;;;;17.80;3.08;;;37.80;24.50;;;;;;4914662;29;20172;-65
2022/06/29 04:44:20;;;;;;;14.13;3.08;;;37.70;24.80;;;;;;4914202;29;20070;-64
2022/06/29 04:46:46;;;;;;;8.18;2.53;;;37.70;24.50;;;;;;4914074;29;20061;-65
2022/06/29 04:49:13;;;;;;;17.67;2.97;;;37.60;25.20;;;;;;4912839;29;20092;-63
2022/06/29 04:51:39;;;;;;;14.48;2.40;;;37.50;25.20;;;;;;4913882;29;20080;-64
2022/06/29 04:54:06;;;;;;;13.10;2.88;;;37.50;24.70;;;;;;4914388;29;20061;-67
2022/06/29 04:56:34;;;;;;;24.65;3.35;;;37.40;25.10;;;;;;4911279;29;20465;-69
2022/06/29 04:59:02;;;;;;;18.02;4.50;;;37.30;24.80;;;;;;4925337;29;20097;-68
2022/06/29 05:01:31;;;;;;;16.10;4.22;;;37.30;24.90;;;;;;4912341;29;20074;-66
2022/06/29 05:04:01;;;;;;;22.77;4.00;;;37.20;25.50;;;;;;4912966;29;20576;-67
2022/06/29 05:06:28;;;;;;;27.75;4.72;;;37.10;25.10;;;;;;4912167;29;20593;-66
2022/06/29 05:08:54;;;;;;;17.63;4.03;;;37.10;25.10;;;;;;4911045;29;20931;-70
2022/06/29 05:11:22;;;;;;;13.02;3.65;;;37.00;25.10;;;;;;4895883;29;20070;-64
2022/06/29 05:13:49;;;;;;;18.33;3.45;;;36.90;25.30;;;;;;4914180;29;20127;-70
2022/06/29 05:16:16;;;;;;;19.13;3.40;;;36.80;25.20;;;;;;4913467;29;20070;-64
2022/06/29 05:18:42;;;;;;;16.02;3.60;;;36.80;25.30;;;;;;4913356;29;20071;-66
2022/06/29 05:21:11;;;;;;;20.95;3.72;;;36.80;25.20;;;;;;4913223;29;20070;-69
2022/06/29 05:23:48;;;;;;;22.30;5.75;;;36.70;25.30;;;;;;4913553;29;20111;-66
2022/06/29 05:26:16;;;;;;;17.85;4.28;;;36.70;25.20;;;;;;4912843;29;20080;-72
2022/06/29 05:28:43;;;;;;;20.15;4.43;;;36.70;25.60;;;;;;4927420;29;20643;-66
2022/06/29 05:31:09;;;;;;;16.90;4.25;;;36.60;26.00;;;;;;4913991;29;20430;-65
2022/06/29 05:33:38;;;;;;;19.45;3.25;;;36.50;25.20;;;;;;4915372;29;20082;-66
2022/06/29 05:36:09;;;;;;;17.33;2.97;;;36.50;25.60;;;;;;4917632;29;20106;-69
2022/06/29 05:38:37;;;;;;;26.05;3.22;;;36.40;25.60;;;;;;4928116;29;20084;-66
2022/06/29 05:41:03;;;;;;;23.08;3.63;;;36.40;26.30;;;;;;4914408;29;20532;-67
2022/06/29 05:43:31;;;;;;;20.85;3.67;;;36.30;26.10;;;;;;4897276;29;20495;-67
2022/06/29 05:45:58;;;;;;;13.80;2.80;;;36.30;25.50;;;;;;4897700;29;20109;-73
2022/06/29 05:48:24;;;;;;;18.42;3.42;;;36.30;26.00;;;;;;4928733;28;20081;-67
2022/06/29 05:50:51;;;;;;;15.68;3.50;;;36.20;26.60;;;;;;4913062;29;20079;-67
2022/06/29 05:53:17;;;;;;;14.98;4.00;;;36.20;25.90;;;;;;4915589;29;20125;-66
2022/06/29 05:55:45;;;;;;;21.73;3.80;;;36.20;25.60;;;;;;4913827;29;20505;-71
2022/06/29 05:58:15;;;;;;;22.67;3.83;;;36.20;25.50;;;;;;4896203;29;20531;-68
2022/06/29 06:00:42;;;;;;;21.63;3.90;;;36.10;25.90;;;;;;4928405;29;20084;-66
2022/06/29 06:03:09;;;;;;;18.08;4.15;;;36.10;25.60;;;;;;4912784;29;20132;-67
2022/06/29 06:05:35;;;;;;;23.75;4.40;;;36.10;25.70;;;;;;4912993;29;20104;-66
2022/06/29 06:08:02;;;;;;;26.88;4.40;;;36.10;25.70;;;;;;4912416;29;20075;-68
2022/06/29 06:10:28;;;;;;;20.55;3.97;;;36.00;26.00;;;;;;4911926;29;20123;-72
2022/06/29 06:12:54;;;;;;;17.45;3.83;;;36.00;25.80;;;;;;4916113;29;20097;-67
2022/06/29 06:15:21;;;;;;;16.42;3.53;;;35.90;25.50;;;;;;4912264;29;20069;-67
2022/06/29 06:17:47;;;;;;;18.40;3.63;;;35.90;26.00;;;;;;4911608;29;20164;-67
2022/06/29 06:20:13;;;;;;;24.27;3.78;;;35.80;25.30;;;;;;4912544;29;20078;-69
2022/06/29 06:22:40;;;;;;;21.70;4.22;;;35.80;25.80;;;;;;4881172;29;20496;-69
2022/06/29 06:25:07;;;;;;;24.40;4.57;;;35.80;26.50;;;;;;4912279;29;20454;-66
2022/06/29 06:27:34;;;;;;;21.20;4.50;;;35.70;26.90;;;;;;4912277;29;20718;-69
2022/06/29 06:30:00;;;;;;;18.13;4.03;;;35.60;27.50;;;;;;4911076;29;20623;-65
2022/06/29 06:32:27;;;;;;;24.38;3.97;;;35.60;26.10;;;;;;4911631;29;20112;-66
2022/06/29 06:34:53;;;;;;;18.70;4.15;;;35.60;26.10;;;;;;4912129;29;20124;-68
2022/06/29 06:37:19;;;;;;;22.80;3.72;;;35.60;26.20;;;;;;4912461;29;20111;-64
2022/06/29 06:41:21;;;;;;;24.38;3.95;;;35.60;26.10;;;;;;4910496;29;20110;-67
2022/06/29 06:42:32;;;;;;;17.05;3.75;;;35.50;25.80;;;;;;4911504;29;20094;-66
2022/06/29 06:44:58;;;;;;;17.52;3.20;;;35.50;25.40;;;;;;4912884;29;20088;-65
2022/06/29 06:47:25;;;;;;;12.32;3.22;;;35.60;25.50;;;;;;4926468;29;20074;-63
2022/06/29 06:49:51;;;;;;;21.50;3.40;;;35.50;25.60;;;;;;4911446;29;20178;-65
2022/06/29 06:52:17;;;;;;;19.80;3.10;;;35.50;25.90;;;;;;4911204;29;20077;-65
2022/06/29 06:54:47;;;;;;;24.30;4.15;;;35.50;24.90;;;;;;4912763;29;20117;-66
2022/06/29 06:57:14;;;;;;;15.07;3.40;;;35.50;25.00;;;;;;4911657;29;20519;-64
2022/06/29 06:59:40;;;;;;;18.98;3.72;;;35.50;25.30;;;;;;4910828;29;20123;-64
2022/06/29 07:02:07;;;;;;;20.05;3.97;;;35.50;25.00;;;;;;4910182;29;20383;-64
2022/06/29 07:04:33;;;;;;;30.00;3.78;;;35.50;24.50;;;;;;4913106;29;20083;-64
2022/06/29 07:07:00;;;;;;;16.85;3.30;;;35.50;24.80;;;;;;4911093;29;20186;-65
2022/06/29 07:09:26;;;;;;;6.95;2.30;;;35.60;24.30;;;;;;4911190;29;20088;-66
2022/06/29 07:11:52;;;;;;;14.57;2.72;;;35.50;23.80;;;;;;4911864;29;20123;-65
2022/06/29 07:14:19;;;;;;;8.73;2.22;;;35.50;23.80;;;;;;4912503;29;20091;-65
2022/06/29 07:16:45;;;;;;;11.77;2.90;;;35.40;23.70;;;;;;4911061;29;20091;-65
2022/06/29 07:19:11;;;;;;;11.10;2.75;;;35.40;23.40;;;;;;4922022;29;20516;-67
2022/06/29 07:21:38;;;;;;;12.63;2.30;;;35.40;22.70;;;;;;4926171;28;20163;-64
2022/06/29 07:24:05;;;;;;;15.07;2.30;;;35.30;22.20;;;;;;4910540;29;20442;-67
2022/06/29 07:26:31;;;;;;;13.00;2.00;;;35.40;21.70;;;;;;4910757;29;20519;-65
2022/06/29 07:28:57;;;;;;;10.45;2.15;;;35.40;22.00;;;;;;4910888;29;20445;-65
2022/06/29 07:31:24;;;;;;;12.38;2.00;;;35.30;21.20;;;;;;4910683;29;20529;-64
2022/06/29 07:33:50;;;;;;;5.65;1.65;;;35.40;20.90;;;;;;4911053;29;20547;-65
2022/06/29 07:36:16;;;;;;;8.13;1.67;;;35.20;20.80;;;;;;4910547;29;20570;-64
2022/06/29 07:38:43;;;;;;;8.45;1.27;;;35.20;21.10;;;;;;4910594;29;20087;-66
2022/06/29 07:41:09;;;;;;;7.30;1.90;;;35.20;20.90;;;;;;4911891;29;20066;-65
2022/06/29 07:43:35;;;;;;;9.38;1.52;;;35.10;20.60;;;;;;4910616;29;21008;-65
2022/06/29 07:46:02;;;;;;;9.10;1.60;;;35.20;20.90;;;;;;4910103;29;20075;-64
2022/06/29 07:48:28;;;;;;;8.65;1.60;;;35.10;20.90;;;;;;4910206;29;20452;-65
2022/06/29 07:50:55;;;;;;;7.20;1.65;;;35.00;20.70;;;;;;4910295;29;20067;-64
2022/06/29 07:53:22;;;;;;;4.78;1.60;;;35.00;20.60;;;;;;4925483;29;20106;-65
2022/06/29 07:55:48;;;;;;;5.00;1.70;;;35.00;20.40;;;;;;4910653;29;20151;-64
2022/06/29 07:58:16;;;;;;;5.70;1.80;;;34.90;20.20;;;;;;4909983;29;20083;-62
2022/06/29 08:00:45;;;;;;;10.95;1.85;;;34.90;20.50;;;;;;4894354;29;20080;-64
2022/06/29 08:03:14;;;;;;;8.45;1.60;;;34.90;20.60;;;;;;4912099;29;20538;-64
2022/06/29 08:05:41;;;;;;;5.20;1.48;;;34.90;20.20;;;;;;4925865;29;20093;-65
2022/06/29 08:08:08;;;;;;;3.38;1.40;;;34.90;20.80;;;;;;4906643;29;20075;-65
2022/06/29 08:10:35;;;;;;;12.18;1.60;;;34.90;20.60;;;;;;4910710;29;20081;-66
2022/06/29 08:13:02;;;;;;;4.50;1.40;;;34.90;20.50;;;;;;4910202;29;20079;-64
2022/06/29 08:15:28;;;;;;;10.10;1.90;;;34.80;20.20;;;;;;4909685;29;20149;-64
2022/06/29 08:17:55;;;;;;;8.20;1.50;;;34.80;20.60;;;;;;4909715;29;20448;-64
2022/06/29 08:20:22;;;;;;;11.10;1.60;;;34.90;20.80;;;;;;4910811;29;20076;-67
2022/06/29 08:22:49;;;;;;;8.93;1.50;;;34.80;20.60;;;;;;4910489;29;20111;-65
2022/06/29 08:25:16;;;;;;;10.85;1.67;;;34.80;20.40;;;;;;4913672;29;20083;-64
2022/06/29 08:27:42;;;;;;;13.95;1.60;;;34.80;20.20;;;;;;4914157;29;20172;-65
2022/06/29 08:30:10;;;;;;;9.60;1.70;;;34.80;20.90;;;;;;4914236;29;20097;-64
2022/06/29 08:32:39;;;;;;;8.07;1.42;;;34.80;20.70;;;;;;4929711;29;20102;-67
2022/06/29 08:35:06;;;;;;;6.50;1.50;;;34.80;20.20;;;;;;4932133;29;20147;-64
2022/06/29 08:37:32;;;;;;;7.30;1.67;;;34.80;20.10;;;;;;4914651;29;20118;-64
2022/06/29 08:39:59;;;;;;;12.48;1.50;;;34.80;20.70;;;;;;4912516;29;20075;-64
2022/06/29 08:42:25;;;;;;;11.00;1.40;;;34.70;20.50;;;;;;4913829;29;20441;-64
2022/06/29 08:44:52;;;;;;;11.88;1.70;;;34.70;20.00;;;;;;4913653;29;20083;-64
2022/06/29 08:47:18;;;;;;;10.73;1.63;;;34.70;20.10;;;;;;4913180;29;20094;-65
2022/06/29 08:49:45;;;;;;;7.60;1.45;;;34.70;20.10;;;;;;4912596;29;20474;-63
2022/06/29 08:52:12;;;;;;;8.98;1.70;;;34.70;20.40;;;;;;4916223;29;20076;-65
2022/06/29 08:54:48;;;;;;;12.23;1.92;;;34.70;20.10;;;;;;4913539;29;20082;-65
2022/06/29 08:57:16;;;;;;;9.48;1.70;;;34.60;19.80;;;;;;4928284;29;20067;-65
2022/06/29 08:59:44;;;;;;;10.20;1.73;;;34.60;20.10;;;;;;4928807;29;20150;-66
2022/06/29 09:02:13;;;;;;;10.43;1.88;;;34.50;20.10;;;;;;4913328;29;20079;-65
2022/06/29 09:04:40;;;;;;;4.65;2.08;;;34.50;20.30;;;;;;4913473;29;20793;-67
2022/06/29 09:07:06;;;;;;;9.65;1.80;;;34.50;20.80;;;;;;4929599;28;20181;-64
2022/06/29 09:09:59;;;;;;;6.80;1.98;;;34.50;20.70;;;;;;4912189;29;20541;-64
2022/06/29 09:12:27;;;;;;;4.38;1.92;;;34.50;21.20;;;;;;4929167;29;20481;-66
2022/06/29 09:14:53;;;;;;;8.05;2.40;;;34.40;21.60;;;;;;4913256;29;20631;-65
2022/06/29 09:17:20;;;;;;;7.07;2.47;;;34.40;21.90;;;;;;4912912;29;20449;-64
2022/06/29 09:19:48;;;;;;;7.90;2.35;;;34.30;21.20;;;;;;4928667;29;20111;-65
2022/06/29 09:22:15;;;;;;;9.35;2.35;;;34.30;20.30;;;;;;4913598;29;20075;-64
2022/06/29 09:24:41;;;;;;;6.53;2.67;;;34.30;20.50;;;;;;4913054;29;20096;-65
2022/06/29 09:27:11;;;;;;;9.68;2.53;;;34.30;21.10;;;;;;4914446;29;20079;-64
2022/06/29 09:29:40;;;;;;;13.18;2.60;;;34.30;20.60;;;;;;4897569;29;20457;-63
2022/06/29 09:32:12;;;;;;;6.72;2.25;;;34.30;21.00;;;;;;4914058;29;20092;-64
2022/06/29 09:34:43;;;;;;;6.15;2.00;;;34.30;21.00;;;;;;4913185;29;20075;-64
2022/06/29 09:37:18;;;;;;;8.20;2.30;;;34.20;21.40;;;;;;4913751;29;20192;-64
2022/06/29 09:39:46;;;;;;;4.68;2.55;;;34.20;21.10;;;;;;4916269;29;20095;-64
2022/06/29 09:42:22;;;;;;;13.90;2.58;;;34.20;21.00;;;;;;4896908;29;20106;-64
2022/06/29 09:44:49;;;;;;;10.20;2.20;;;34.20;21.00;;;;;;4912544;29;20081;-64
2022/06/29 09:47:17;;;;;;;10.98;2.75;;;34.10;21.00;;;;;;4912076;29;20088;-63
2022/06/29 09:49:48;;;;;;;6.85;2.40;;;34.10;21.10;;;;;;4912587;29;20122;-64
2022/06/29 09:52:15;;;;;;;7.55;2.90;;;34.10;21.70;;;;;;4912652;29;20432;-65
2022/06/29 09:54:58;;;;;;;12.60;3.50;;;34.00;21.80;;;;;;4911331;29;20072;-65
2022/06/29 09:57:36;;;;;;;7.78;3.30;;;33.80;21.60;;;;;;4913636;29;20099;-67
2022/06/29 10:02:52;;;;;;;11.00;2.92;;;33.80;23.10;;;;;;4912739;29;20102;-64
2022/06/29 10:05:28;;;;;;;14.50;2.60;;;33.70;23.00;;;;;;4928372;29;20084;-64
2022/06/29 10:07:55;;;;;;;15.68;2.53;;;33.60;22.40;;;;;;4913851;29;20170;-67
2022/06/29 10:10:24;;;;;;;8.07;2.80;;;33.60;22.40;;;;;;4913632;29;20088;-66
2022/06/29 10:13:39;;;;;;;16.08;2.83;;;33.60;22.70;;;;;;4913285;29;20473;-66
2022/06/29 10:16:30;;;;;;;17.98;3.28;;;33.60;22.70;;;;;;4912947;29;20478;-63
2022/06/29 10:19:12;;;;;;;17.25;4.50;;;33.50;23.90;;;;;;4912006;29;20094;-64
2022/06/29 10:21:38;;;;;;;23.42;4.10;;;33.40;24.30;;;;;;4927432;29;20546;-66
2022/06/29 10:24:05;;;;;;;22.00;4.53;;;33.30;25.20;;;;;;4911939;29;20194;-66
2022/06/29 10:26:32;;;;;;;27.48;4.22;;;33.40;26.30;;;;;;4927414;29;20076;-64
2022/06/29 10:29:20;;;;;;;24.67;5.22;;;33.30;26.40;;;;;;4910349;29;20182;-64
2022/06/29 10:31:57;;;;;;;26.02;5.30;;;33.30;26.90;;;;;;4912236;29;20075;-65
2022/06/29 10:34:37;;;;;;;29.85;5.28;;;33.20;27.20;;;;;;4912602;29;20083;-64
2022/06/29 10:37:07;;;;;;;28.83;6.22;;;33.00;27.60;;;;;;4910939;29;20114;-64
2022/06/29 10:39:46;;;;;;;22.00;5.43;;;33.00;28.00;;;;;;4911767;29;20083;-63
2022/06/29 10:45:16;;;;;;;30.83;5.95;;;33.00;29.10;;;;;;4911920;29;20174;-63
2022/06/29 10:47:55;;;;;;;23.88;5.47;;;32.90;30.00;;;;;;4912365;29;20099;-66
2022/06/29 10:50:28;;;;;;;30.42;5.65;;;32.80;30.20;;;;;;4911705;29;20102;-66
2022/06/29 10:53:08;;;;;;;24.63;5.63;;;32.70;31.30;;;;;;4911057;29;20166;-64
2022/06/29 10:55:37;;;;;;;18.58;5.20;;;32.70;32.20;;;;;;4910497;29;20067;-65
2022/06/29 10:58:04;;;;;;;27.90;5.38;;;32.70;31.00;;;;;;4911976;29;20095;-66
2022/06/29 11:00:39;;;;;;;23.33;5.38;;;32.60;30.50;;;;;;4911355;29;20181;-63
2022/06/29 11:03:10;;;;;;;29.77;6.28;;;32.60;30.90;;;;;;4927089;29;20651;-64
2022/06/29 11:05:37;;;;;;;19.08;4.93;;;32.60;31.60;;;;;;4911549;29;20550;-64
2022/06/29 11:13:34;;;;;;;22.05;5.00;;;32.50;32.40;;;;;;4911019;29;20079;-64
2022/06/29 11:16:00;;;;;;;24.67;5.70;;;32.30;32.50;;;;;;4911048;29;20099;-65
2022/06/29 11:18:30;;;;;;;25.00;7.47;;;32.30;33.10;;;;;;4912318;29;20078;-65
2022/06/29 11:21:04;;;;;;;45.47;10.65;;;32.20;34.50;;;;;;4895269;29;20086;-65
2022/06/29 11:23:35;;;;;;;31.85;9.60;;;32.20;35.60;;;;;;4927053;29;20107;-63
2022/06/29 11:26:04;;;;;;;40.47;10.68;;;32.10;36.60;;;;;;4910590;29;20544;-63
2022/06/29 11:28:40;;;;;;;47.95;14.18;;;32.10;38.10;;;;;;4895195;29;20072;-64
2022/06/29 11:31:11;;;;;;;42.73;13.37;;;32.10;38.50;;;;;;4912303;29;20162;-65
2022/06/29 11:33:38;;;;;;;46.45;12.98;;;31.90;39.20;;;;;;4927771;29;20079;-64
2022/06/29 11:36:09;;;;;;;46.75;10.82;;;31.90;39.80;;;;;;4910866;29;20102;-64
2022/06/29 11:38:49;;;;;;;39.45;8.90;;;31.80;40.40;;;;;;4929141;29;20072;-65
2022/06/29 11:43:03;;;;;;;47.65;10.18;;;31.70;41.30;;;;;;4911572;29;20453;-63
2022/06/29 11:44:30;;;;;;;41.45;8.27;;;31.70;41.90;;;;;;4910904;29;20079;-64
2022/06/29 11:46:56;;;;;;;30.52;7.38;;;31.60;42.50;;;;;;4911275;29;20131;-64
2022/06/29 11:49:39;;;;;;;24.65;6.63;;;31.50;42.90;;;;;;4909472;29;20099;-64
2022/06/29 11:52:13;;;;;;;33.58;6.53;;;31.50;43.00;;;;;;4911268;29;20067;-64
2022/06/29 11:54:56;;;;;;;37.95;8.43;;;31.40;43.00;;;;;;4894330;29;20606;-64
2022/06/29 11:57:23;;;;;;;45.92;14.38;;;31.40;43.20;;;;;;4924343;29;20079;-64
2022/06/29 11:59:49;;;;;;;56.42;21.40;;;31.30;43.20;;;;;;4916160;29;20167;-66
2022/06/29 12:02:17;;;;;;;52.03;14.70;;;31.30;43.30;;;;;;4914487;29;20080;-64
2022/06/29 12:04:45;;;;;;;47.70;12.30;;;31.10;43.50;;;;;;4915536;29;20084;-64
2022/06/29 12:07:13;;;;;;;41.33;9.05;;;31.10;43.50;;;;;;4930340;29;20514;-64
2022/06/29 12:09:41;;;;;;;39.20;8.60;;;31.10;43.50;;;;;;4913570;29;20095;-64
2022/06/29 12:12:10;;;;;;;33.50;7.80;;;31.10;43.70;;;;;;4915303;29;20553;-64
2022/06/29 12:14:37;;;;;;;28.08;6.47;;;30.90;44.20;;;;;;4915611;29;20072;-64
2022/06/29 12:17:05;;;;;;;31.40;6.30;;;30.90;44.70;;;;;;4913721;29;20454;-64
2022/06/29 12:19:31;;;;;;;27.38;5.85;;;30.90;45.00;;;;;;4915463;29;20123;-63
2022/06/29 12:21:58;;;;;;;24.35;6.07;;;30.90;44.90;;;;;;4915309;29;20080;-64
2022/06/29 12:24:26;;;;;;;30.25;6.80;;;30.90;44.70;;;;;;4898166;29;20092;-64
2022/06/29 12:26:53;;;;;;;27.92;5.65;;;30.90;44.30;;;;;;4913510;29;20167;-66
2022/06/29 12:29:19;;;;;;;30.48;5.78;;;30.90;44.40;;;;;;4897750;29;20095;-65
2022/06/29 12:31:46;;;;;;;22.55;5.18;;;31.00;43.90;;;;;;4913055;29;20091;-63
2022/06/29 12:34:15;;;;;;;26.40;5.30;;;30.90;43.60;;;;;;4916146;29;20079;-62
2022/06/29 12:36:43;;;;;;;28.27;5.72;;;30.80;43.50;;;;;;4915641;29;20108;-63
2022/06/29 12:39:09;;;;;;;34.42;5.65;;;30.80;43.90;;;;;;4897919;29;20076;-63
2022/06/29 12:41:36;;;;;;;31.00;5.30;;;30.80;43.70;;;;;;4928963;29;20143;-62
2022/06/29 12:44:04;;;;;;;33.72;6.25;;;30.90;43.40;;;;;;4898451;29;20102;-62
2022/06/29 12:46:31;;;;;;;29.58;5.93;;;30.90;43.50;;;;;;4913441;29;20499;-63
2022/06/29 12:49:00;;;;;;;35.22;5.95;;;30.90;43.40;;;;;;4913755;29;20954;-64
2022/06/29 12:51:27;;;;;;;34.10;5.88;;;30.80;43.80;;;;;;4915131;29;20079;-64
2022/06/29 12:53:54;;;;;;;32.75;6.22;;;30.70;43.80;;;;;;4912728;29;20087;-62
2022/06/29 12:56:20;;;;;;;29.73;6.47;;;30.80;43.40;;;;;;4896193;29;20072;-65
2022/06/29 12:58:47;;;;;;;33.90;6.57;;;30.70;43.30;;;;;;4912879;29;20083;-65
2022/06/29 13:01:13;;;;;;;47.05;7.20;;;30.70;42.80;;;;;;4912978;29;20083;-63